Time;durP1;ratioP1;P1;durP2;ratioP2;P2;SDS_P1;SDS_P2;PMS_P1;PMS_P2;Temp;Humidity;BMP_temperature;BMP_pressure;BME280_temperature;BME280_humidity;BME280_pressure;Samples;Min_cycle;Max_cycle;Signal;HPM_P1;HPM_P2
2023/05/15 00:00:21;;;;;;;2.85;1.60;;;;;;;;;;13000479;19;22046;-66
2023/05/15 00:04:59;;;;;;;1.98;1.30;;;;;;;;;;13000762;19;20404;-65
2023/05/15 00:09:17;;;;;;;2.15;0.95;;;;;;;;;;13000403;19;20015;-65
2023/05/15 00:13:37;;;;;;;1.80;1.27;;;;;;;;;;12999639;19;20011;-65
2023/05/15 00:17:54;;;;;;;2.30;1.33;;;;;;;;;;13000332;19;20010;-65
2023/05/15 00:22:12;;;;;;;2.75;1.20;;;;;;;;;;12999600;19;20030;-65
2023/05/15 00:26:30;;;;;;;2.28;1.35;;;;;;;;;;13000758;19;20018;-65
2023/05/15 00:30:50;;;;;;;3.03;1.17;;;;;;;;;;12999845;19;20006;-65
2023/05/15 00:35:08;;;;;;;2.55;1.23;;;;;;;;;;12998508;19;20011;-65
2023/05/15 00:39:26;;;;;;;1.55;1.02;;;;;;;;;;12999425;19;20014;-65
2023/05/15 00:43:43;;;;;;;1.48;1.30;;;;;;;;;;12998095;19;20014;-65
2023/05/15 00:48:02;;;;;;;0.70;0.55;;;;;;;;;;12996109;19;20006;-65
2023/05/15 00:52:20;;;;;;;1.30;1.15;;;;;;;;;;12996824;19;20003;-65
2023/05/15 00:56:39;;;;;;;2.03;1.02;;;;;;;;;;13009144;19;20469;-65
2023/05/15 01:00:56;;;;;;;4.28;1.38;;;;;;;;;;13008945;19;20026;-65
2023/05/15 01:05:14;;;;;;;3.13;1.05;;;;;;;;;;13009878;19;20013;-65
2023/05/15 01:09:35;;;;;;;2.42;1.00;;;;;;;;;;13010364;19;20091;-65
2023/05/15 01:13:52;;;;;;;2.70;1.40;;;;;;;;;;13008473;19;19999;-64
2023/05/15 01:18:11;;;;;;;2.72;1.35;;;;;;;;;;13008965;19;20006;-65
2023/05/15 01:22:45;;;;;;;2.72;1.50;;;;;;;;;;13009001;19;20035;-65
2023/05/15 01:27:23;;;;;;;4.22;1.20;;;;;;;;;;13006478;19;20090;-65
2023/05/15 01:31:47;;;;;;;3.60;1.23;;;;;;;;;;13009002;19;20021;-65
2023/05/15 01:36:17;;;;;;;2.05;1.15;;;;;;;;;;13006043;19;20002;-65
2023/05/15 01:40:34;;;;;;;1.95;1.15;;;;;;;;;;13007340;19;20025;-65
2023/05/15 01:44:54;;;;;;;;;;;;;;;;;;13006583;19;20006;-64
2023/05/15 01:49:14;;;;;;;1.75;1.00;;;;;;;;;;13007214;19;19917;-65
2023/05/15 01:53:34;;;;;;;3.90;1.30;;;;;;;;;;13005797;19;20474;-65
2023/05/15 01:57:52;;;;;;;2.85;1.08;;;;;;;;;;13005998;19;20006;-65
2023/05/15 02:02:10;;;;;;;2.60;1.00;;;;;;;;;;13004911;19;20486;-66
2023/05/15 02:06:29;;;;;;;5.50;1.23;;;;;;;;;;13004666;19;20010;-65
2023/05/15 02:10:48;;;;;;;1.10;0.95;;;;;;;;;;13004489;19;20462;-65
2023/05/15 02:15:09;;;;;;;2.33;1.13;;;;;;;;;;13005032;19;20023;-65
2023/05/15 02:19:27;;;;;;;1.83;1.00;;;;;;;;;;13004674;19;20010;-65
2023/05/15 02:23:45;;;;;;;1.92;1.10;;;;;;;;;;13004597;19;20014;-65
2023/05/15 02:28:06;;;;;;;2.47;0.85;;;;;;;;;;13004770;19;20003;-66
2023/05/15 02:33:03;;;;;;;1.20;0.98;;;;;;;;;;13004141;19;20015;-66
2023/05/15 02:37:28;;;;;;;1.63;1.00;;;;;;;;;;13003995;19;20146;-65
2023/05/15 02:41:47;;;;;;;1.30;1.20;;;;;;;;;;13004520;19;20649;-64
2023/05/15 02:46:06;;;;;;;1.33;0.90;;;;;;;;;;13001941;19;20010;-64
2023/05/15 02:50:24;;;;;;;1.42;0.90;;;;;;;;;;13002967;19;20017;-65
2023/05/15 02:54:42;;;;;;;0.98;0.70;;;;;;;;;;13003024;19;20010;-64
2023/05/15 02:59:00;;;;;;;1.80;0.95;;;;;;;;;;13004023;19;20010;-64
2023/05/15 03:03:18;;;;;;;2.67;1.20;;;;;;;;;;13004294;19;20018;-64
2023/05/15 03:07:36;;;;;;;1.27;0.83;;;;;;;;;;13001337;19;20010;-64
2023/05/15 03:11:54;;;;;;;;;;;;;;;;;;13003963;19;20015;-64
2023/05/15 03:16:11;;;;;;;1.20;1.10;;;;;;;;;;13002268;19;19947;-64
2023/05/15 03:20:29;;;;;;;1.85;1.15;;;;;;;;;;13002522;19;20007;-63
2023/05/15 03:24:47;;;;;;;3.40;1.00;;;;;;;;;;13002325;19;20086;-63
2023/05/15 03:29:05;;;;;;;2.33;1.20;;;;;;;;;;13001869;19;20022;-64
2023/05/15 03:33:23;;;;;;;1.48;1.30;;;;;;;;;;13002379;19;20018;-63
2023/05/15 03:37:41;;;;;;;0.75;0.68;;;;;;;;;;13001313;19;20018;-63
2023/05/15 03:41:58;;;;;;;1.00;0.85;;;;;;;;;;13001014;19;20007;-63
2023/05/15 03:46:16;;;;;;;1.20;0.75;;;;;;;;;;13000457;19;20351;-63
2023/05/15 03:50:33;;;;;;;1.52;0.80;;;;;;;;;;13001172;19;20469;-63
2023/05/15 03:54:51;;;;;;;0.98;0.80;;;;;;;;;;13000442;19;20014;-63
2023/05/15 03:59:09;;;;;;;1.27;0.80;;;;;;;;;;13000694;19;20018;-63
2023/05/15 04:03:26;;;;;;;2.28;0.85;;;;;;;;;;13000058;19;20002;-64
2023/05/15 04:07:44;;;;;;;0.88;0.77;;;;;;;;;;13001347;19;20006;-64
2023/05/15 04:12:02;;;;;;;2.10;0.80;;;;;;;;;;12999389;19;20017;-64
2023/05/15 04:16:20;;;;;;;1.17;0.80;;;;;;;;;;12998560;19;20013;-64
2023/05/15 04:20:38;;;;;;;0.75;0.73;;;;;;;;;;12999334;19;20011;-64
2023/05/15 04:24:55;;;;;;;1.13;0.93;;;;;;;;;;12999124;19;20461;-64
2023/05/15 04:29:13;;;;;;;0.70;0.65;;;;;;;;;;13006237;19;20010;-64
2023/05/15 04:33:31;;;;;;;2.38;0.82;;;;;;;;;;13011587;19;20532;-63
2023/05/15 04:37:48;;;;;;;2.13;0.90;;;;;;;;;;13011804;19;20011;-63
2023/05/15 04:42:06;;;;;;;0.90;0.68;;;;;;;;;;13010919;19;20007;-63
2023/05/15 04:46:24;;;;;;;1.65;0.88;;;;;;;;;;13009700;19;20010;-63
2023/05/15 04:50:41;;;;;;;2.35;0.80;;;;;;;;;;13010547;19;20018;-63
2023/05/15 04:54:59;;;;;;;1.15;1.00;;;;;;;;;;13009538;19;20007;-63
2023/05/15 04:59:17;;;;;;;1.00;0.60;;;;;;;;;;13010033;19;20457;-63
2023/05/15 05:03:35;;;;;;;2.50;0.77;;;;;;;;;;13010221;19;20014;-63
2023/05/15 05:07:53;;;;;;;1.63;0.98;;;;;;;;;;13009792;19;20038;-63
2023/05/15 05:12:10;;;;;;;3.50;0.70;;;;;;;;;;13009462;19;20394;-64
2023/05/15 05:16:28;;;;;;;1.10;0.60;;;;;;;;;;13008397;19;20011;-63
2023/05/15 05:20:46;;;;;;;0.98;0.73;;;;;;;;;;13009083;19;20018;-63
2023/05/15 05:25:05;;;;;;;1.05;0.70;;;;;;;;;;13007906;19;20014;-63
2023/05/15 05:29:24;;;;;;;0.63;0.63;;;;;;;;;;13008985;19;20018;-63
2023/05/15 05:33:42;;;;;;;0.50;0.50;;;;;;;;;;13007830;19;20018;-64
2023/05/15 05:37:59;;;;;;;0.57;0.57;;;;;;;;;;13007630;19;20018;-63
2023/05/15 05:42:17;;;;;;;1.42;0.75;;;;;;;;;;13007546;19;19995;-63
2023/05/15 05:46:35;;;;;;;1.83;1.00;;;;;;;;;;13007160;19;20017;-63
2023/05/15 05:50:53;;;;;;;3.70;1.00;;;;;;;;;;13008146;19;20011;-63
2023/05/15 05:55:11;;;;;;;1.00;0.90;;;;;;;;;;13006004;19;20486;-64
2023/05/15 05:59:29;;;;;;;1.42;0.75;;;;;;;;;;13007843;19;20003;-64
2023/05/15 06:03:47;;;;;;;1.30;0.75;;;;;;;;;;13007478;19;20018;-64
2023/05/15 06:08:05;;;;;;;;;;;;;;;;;;13006978;19;20014;-64
2023/05/15 06:12:23;;;;;;;;;;;;;;;;;;13007233;19;20237;-64
2023/05/15 06:16:40;;;;;;;1.50;0.80;;;;;;;;;;13006381;19;19926;-64
2023/05/15 06:21:16;;;;;;;3.88;0.80;;;;;;;;;;13006226;19;20011;-64
2023/05/15 06:25:34;;;;;;;2.05;1.05;;;;;;;;;;13005392;19;20014;-63
2023/05/15 06:29:52;;;;;;;2.53;0.82;;;;;;;;;;13005458;19;19999;-63
2023/05/15 06:34:10;;;;;;;0.70;0.63;;;;;;;;;;13004243;19;20026;-63
2023/05/15 06:38:28;;;;;;;1.27;0.65;;;;;;;;;;13004728;19;20014;-63
2023/05/15 06:42:46;;;;;;;1.40;0.88;;;;;;;;;;13004296;19;20017;-64
2023/05/15 06:47:04;;;;;;;2.35;0.90;;;;;;;;;;13004175;19;20031;-64
2023/05/15 06:51:22;;;;;;;1.05;0.90;;;;;;;;;;13001694;19;20038;-64
2023/05/15 06:55:40;;;;;;;1.80;1.10;;;;;;;;;;13003578;19;20010;-64
2023/05/15 06:59:57;;;;;;;2.55;0.85;;;;;;;;;;13003923;19;20002;-64
2023/05/15 07:04:15;;;;;;;0.90;0.77;;;;;;;;;;13003417;19;20014;-64
2023/05/15 07:08:33;;;;;;;2.13;1.00;;;;;;;;;;13004089;19;20018;-64
2023/05/15 07:12:50;;;;;;;0.88;0.77;;;;;;;;;;13003119;19;20017;-64
2023/05/15 07:17:08;;;;;;;1.73;1.10;;;;;;;;;;13002002;19;20018;-65
2023/05/15 07:21:26;;;;;;;1.33;1.08;;;;;;;;;;13002719;19;20025;-64
2023/05/15 07:25:43;;;;;;;1.70;0.95;;;;;;;;;;13002761;19;19998;-64
2023/05/15 07:30:03;;;;;;;2.53;1.15;;;;;;;;;;13001719;19;19999;-64
2023/05/15 07:34:22;;;;;;;2.22;1.45;;;;;;;;;;13001741;19;20420;-64
2023/05/15 07:38:40;;;;;;;1.25;1.15;;;;;;;;;;13001537;19;20015;-64
2023/05/15 07:42:57;;;;;;;1.75;1.25;;;;;;;;;;13001011;19;20093;-64
2023/05/15 07:47:16;;;;;;;2.55;1.13;;;;;;;;;;13000562;19;20014;-64
2023/05/15 07:51:34;;;;;;;1.45;0.75;;;;;;;;;;13001090;19;20466;-64
2023/05/15 07:55:52;;;;;;;1.88;1.38;;;;;;;;;;13000745;19;20018;-64
2023/05/15 08:00:11;;;;;;;2.85;1.15;;;;;;;;;;13000298;19;20010;-64
2023/05/15 08:04:29;;;;;;;0.65;0.65;;;;;;;;;;13011746;19;20014;-64
2023/05/15 08:08:47;;;;;;;1.50;1.02;;;;;;;;;;13013401;19;20014;-64
2023/05/15 08:13:04;;;;;;;0.82;0.80;;;;;;;;;;13012418;19;20002;-64
2023/05/15 08:17:24;;;;;;;1.73;1.17;;;;;;;;;;13012496;19;20010;-64
2023/05/15 08:21:41;;;;;;;2.97;1.58;;;;;;;;;;13012462;19;20014;-64
2023/05/15 08:25:59;;;;;;;1.42;1.17;;;;;;;;;;13012270;19;20014;-64
2023/05/15 08:30:17;;;;;;;1.80;1.63;;;;;;;;;;13011651;19;20007;-64
2023/05/15 08:34:35;;;;;;;3.03;2.00;;;;;;;;;;13011062;19;20011;-64
2023/05/15 08:38:53;;;;;;;3.58;1.85;;;;;;;;;;13011700;19;19998;-64
2023/05/15 08:43:14;;;;;;;2.10;1.60;;;;;;;;;;13009978;19;20021;-64
2023/05/15 08:47:37;;;;;;;1.83;1.50;;;;;;;;;;13008837;19;20025;-64
2023/05/15 08:51:55;;;;;;;2.33;1.60;;;;;;;;;;13009546;19;20018;-64
2023/05/15 08:56:13;;;;;;;2.05;1.77;;;;;;;;;;13008764;19;20094;-64
2023/05/15 09:00:31;;;;;;;3.00;2.08;;;;;;;;;;13010310;19;20006;-64
2023/05/15 09:04:49;;;;;;;3.65;2.28;;;;;;;;;;13010344;19;20003;-64
2023/05/15 09:09:08;;;;;;;2.97;2.63;;;;;;;;;;13009261;19;20006;-64
2023/05/15 09:13:26;;;;;;;3.50;2.35;;;;;;;;;;13007895;19;20014;-63
2023/05/15 09:17:44;;;;;;;3.17;2.42;;;;;;;;;;13008793;19;20014;-63
2023/05/15 09:22:22;;;;;;;2.70;1.80;;;;;;;;;;13008303;19;20010;-64
2023/05/15 09:26:41;;;;;;;2.30;1.90;;;;;;;;;;13009059;19;20006;-63
2023/05/15 09:31:02;;;;;;;3.35;2.20;;;;;;;;;;13008781;19;20489;-63
2023/05/15 09:35:35;;;;;;;3.35;2.00;;;;;;;;;;13007001;19;20006;-63
2023/05/15 09:39:53;;;;;;;3.10;1.77;;;;;;;;;;13008845;19;20017;-63
2023/05/15 09:44:19;;;;;;;3.30;1.83;;;;;;;;;;13007307;19;20039;-64
2023/05/15 09:48:38;;;;;;;2.38;1.65;;;;;;;;;;13007929;19;20013;-64
2023/05/15 09:52:59;;;;;;;2.15;1.20;;;;;;;;;;13007993;19;20002;-64
2023/05/15 09:57:22;;;;;;;2.17;1.45;;;;;;;;;;13007170;19;20003;-65
2023/05/15 10:01:43;;;;;;;0.73;0.73;;;;;;;;;;13007914;19;20014;-65
2023/05/15 10:06:03;;;;;;;2.35;1.30;;;;;;;;;;13006437;19;20012;-67
2023/05/15 10:10:22;;;;;;;4.63;1.02;;;;;;;;;;13006348;19;20009;-65
2023/05/15 10:14:40;;;;;;;3.28;1.20;;;;;;;;;;13005767;19;20006;-64
2023/05/15 10:18:57;;;;;;;;;;;;;;;;;;13006519;19;20013;-65
2023/05/15 10:23:17;;;;;;;3.10;1.40;;;;;;;;;;13005557;19;20287;-65
2023/05/15 10:27:37;;;;;;;2.22;0.82;;;;;;;;;;13004692;19;20010;-64
2023/05/15 10:31:56;;;;;;;2.42;1.50;;;;;;;;;;13005638;19;20007;-63
2023/05/15 10:36:15;;;;;;;1.85;1.52;;;;;;;;;;13002712;19;20010;-64
2023/05/15 10:40:38;;;;;;;1.23;1.13;;;;;;;;;;13005396;19;20018;-63
2023/05/15 10:44:59;;;;;;;2.30;1.45;;;;;;;;;;13002943;19;20018;-64
2023/05/15 10:49:17;;;;;;;2.03;1.40;;;;;;;;;;13002896;19;19998;-64
2023/05/15 10:53:35;;;;;;;1.15;1.00;;;;;;;;;;13004845;19;20107;-64
2023/05/15 10:57:53;;;;;;;2.28;1.42;;;;;;;;;;13002125;19;20011;-64
2023/05/15 11:02:25;;;;;;;1.08;0.90;;;;;;;;;;13001986;19;20002;-64
2023/05/15 11:06:48;;;;;;;0.75;0.70;;;;;;;;;;13003792;19;20058;-65
2023/05/15 11:11:06;;;;;;;1.20;0.90;;;;;;;;;;13002757;19;20010;-65
2023/05/15 11:15:24;;;;;;;;;;;;;;;;;;13003698;19;20101;-65
2023/05/15 11:20:02;;;;;;;1.15;0.80;;;;;;;;;;13003545;19;19915;-65
2023/05/15 11:24:21;;;;;;;3.42;0.93;;;;;;;;;;13001927;19;20011;-65
2023/05/15 11:28:46;;;;;;;2.33;1.17;;;;;;;;;;13002761;19;20043;-64
2023/05/15 11:33:09;;;;;;;1.65;0.90;;;;;;;;;;13001711;19;20022;-65
2023/05/15 11:37:28;;;;;;;1.42;0.70;;;;;;;;;;13000925;19;20358;-65
2023/05/15 11:41:46;;;;;;;1.60;0.98;;;;;;;;;;13001670;19;20354;-65
2023/05/15 11:46:09;;;;;;;1.08;0.95;;;;;;;;;;13000596;19;20007;-64
2023/05/15 11:50:28;;;;;;;2.05;0.98;;;;;;;;;;13001254;19;20017;-65
2023/05/15 11:54:46;;;;;;;2.55;1.33;;;;;;;;;;13001046;19;19998;-65
2023/05/15 11:59:04;;;;;;;1.20;0.93;;;;;;;;;;13000759;19;20081;-65
2023/05/15 12:03:31;;;;;;;;;;;;;;;;;;13001871;19;20018;-65
2023/05/15 12:07:49;;;;;;;1.83;0.90;;;;;;;;;;13000547;19;19907;-65
2023/05/15 12:12:13;;;;;;;0.83;0.80;;;;;;;;;;12998351;19;20011;-66
2023/05/15 12:16:31;;;;;;;1.00;0.90;;;;;;;;;;12981003;19;20002;-65
2023/05/15 12:20:53;;;;;;;1.75;0.95;;;;;;;;;;13000066;19;20011;-65
2023/05/15 12:25:13;;;;;;;1.50;1.00;;;;;;;;;;12976479;19;20473;-65
2023/05/15 12:29:31;;;;;;;1.25;0.90;;;;;;;;;;13000020;19;20461;-66
2023/05/15 12:33:51;;;;;;;;;;;;;;;;;;13000629;19;20038;-66
2023/05/15 12:38:15;;;;;;;1.67;1.00;;;;;;;;;;12997579;19;19930;-66
2023/05/15 12:42:38;;;;;;;1.50;1.10;;;;;;;;;;12999472;19;20367;-66
2023/05/15 12:46:57;;;;;;;2.28;1.27;;;;;;;;;;12998677;19;20011;-66
2023/05/15 12:51:16;;;;;;;2.53;1.15;;;;;;;;;;13008662;19;20021;-66
2023/05/15 12:55:38;;;;;;;1.60;1.30;;;;;;;;;;13010383;19;20010;-66
2023/05/15 12:59:56;;;;;;;2.63;1.85;;;;;;;;;;13011315;19;20025;-66
2023/05/15 13:04:15;;;;;;;2.35;1.50;;;;;;;;;;13009721;19;20027;-66
2023/05/15 13:08:40;;;;;;;3.53;2.20;;;;;;;;;;13009256;19;20002;-66
2023/05/15 13:12:58;;;;;;;3.50;1.92;;;;;;;;;;13010085;19;20007;-66
2023/05/15 13:17:16;;;;;;;2.67;1.38;;;;;;;;;;13009394;19;20381;-66
2023/05/15 13:21:33;;;;;;;5.50;1.30;;;;;;;;;;13009502;19;20011;-66
2023/05/15 13:25:51;;;;;;;;;;;;;;;;;;13008038;19;20010;-66
2023/05/15 13:30:09;;;;;;;1.52;1.30;;;;;;;;;;13008846;19;20342;-66
2023/05/15 13:34:27;;;;;;;2.50;1.33;;;;;;;;;;13008426;19;20018;-66
2023/05/15 13:38:46;;;;;;;2.38;1.20;;;;;;;;;;13007286;19;20010;-66
2023/05/15 13:43:05;;;;;;;;;;;;;;;;;;13007180;19;20026;-66
2023/05/15 13:47:23;;;;;;;1.42;1.02;;;;;;;;;;13008325;19;19918;-66
2023/05/15 13:51:40;;;;;;;1.45;0.95;;;;;;;;;;13007742;19;20006;-66
2023/05/15 13:55:58;;;;;;;6.60;1.10;;;;;;;;;;13007174;19;20002;-66
2023/05/15 14:00:16;;;;;;;1.67;1.17;;;;;;;;;;13005004;19;20078;-66
2023/05/15 14:04:33;;;;;;;1.20;1.00;;;;;;;;;;13007631;19;20045;-66
2023/05/15 14:08:51;;;;;;;;;;;;;;;;;;13007692;19;20023;-66
2023/05/15 14:13:09;;;;;;;1.20;0.98;;;;;;;;;;13006366;19;19914;-66
2023/05/15 14:17:28;;;;;;;1.98;1.20;;;;;;;;;;13005756;19;20342;-66
2023/05/15 14:21:45;;;;;;;1.50;1.30;;;;;;;;;;13004637;19;20094;-66
2023/05/15 14:26:03;;;;;;;2.08;1.25;;;;;;;;;;13005010;19;20331;-66
2023/05/15 14:30:21;;;;;;;1.98;1.00;;;;;;;;;;13005750;19;20030;-66
2023/05/15 14:34:40;;;;;;;3.72;1.40;;;;;;;;;;13006288;19;20015;-66
2023/05/15 14:38:57;;;;;;;;;;;;;;;;;;13005518;19;20441;-66
2023/05/15 14:43:16;;;;;;;1.83;1.20;;;;;;;;;;13004529;19;19915;-66
2023/05/15 14:47:34;;;;;;;3.72;1.52;;;;;;;;;;13005685;19;20010;-66
2023/05/15 14:51:52;;;;;;;1.40;1.20;;;;;;;;;;13004665;19;20022;-66
2023/05/15 14:56:09;;;;;;;2.08;1.48;;;;;;;;;;13003567;19;20021;-66
2023/05/15 15:00:27;;;;;;;3.50;1.08;;;;;;;;;;13004419;19;19998;-66
2023/05/15 15:04:45;;;;;;;;;;;;;;;;;;13004712;19;20010;-66
2023/05/15 15:09:03;;;;;;;3.70;1.92;;;;;;;;;;13003158;19;19938;-67
2023/05/15 15:13:20;;;;;;;1.80;1.50;;;;;;;;;;13001247;19;20359;-66
2023/05/15 15:17:38;;;;;;;3.17;2.10;;;;;;;;;;13002944;19;20339;-66
2023/05/15 15:21:56;;;;;;;2.35;1.73;;;;;;;;;;13003112;19;20501;-66
2023/05/15 15:26:14;;;;;;;3.45;1.88;;;;;;;;;;13002584;19;20375;-66
2023/05/15 15:30:32;;;;;;;2.92;1.50;;;;;;;;;;13002784;19;20026;-66
2023/05/15 15:34:50;;;;;;;9.10;2.45;;;;;;;;;;13002467;19;20002;-66
2023/05/15 15:39:10;;;;;;;4.45;2.05;;;;;;;;;;13001096;19;20372;-66
2023/05/15 15:43:27;;;;;;;4.30;1.60;;;;;;;;;;13001300;19;20010;-66
2023/05/15 15:47:45;;;;;;;1.48;1.15;;;;;;;;;;13001357;19;20010;-66
2023/05/15 15:52:07;;;;;;;3.33;1.30;;;;;;;;;;13001431;19;20335;-66
2023/05/15 15:56:27;;;;;;;3.78;1.70;;;;;;;;;;13001277;19;20326;-66
2023/05/15 16:00:45;;;;;;;6.78;2.95;;;;;;;;;;13000996;19;20014;-66
2023/05/15 16:05:06;;;;;;;3.05;1.88;;;;;;;;;;13000211;19;20007;-66
2023/05/15 16:09:24;;;;;;;4.18;1.60;;;;;;;;;;13000925;19;20011;-66
2023/05/15 16:13:41;;;;;;;4.55;2.20;;;;;;;;;;12998962;19;20007;-66
2023/05/15 16:17:59;;;;;;;2.97;1.42;;;;;;;;;;13000318;19;20006;-65
2023/05/15 16:22:17;;;;;;;3.38;1.80;;;;;;;;;;13002002;19;20367;-66
2023/05/15 16:26:36;;;;;;;;;;;;;;;;;;13013349;19;20010;-66
2023/05/15 16:30:55;;;;;;;1.95;1.25;;;;;;;;;;13013081;19;19919;-66
2023/05/15 16:35:12;;;;;;;2.72;1.48;;;;;;;;;;13011129;19;20334;-65
2023/05/15 16:39:37;;;;;;;2.47;1.60;;;;;;;;;;13011517;19;20014;-65
2023/05/15 16:43:55;;;;;;;5.10;1.35;;;;;;;;;;13010543;19;20119;-65
2023/05/15 16:48:13;;;;;;;5.43;1.38;;;;;;;;;;13011058;19;20014;-65
2023/05/15 16:52:31;;;;;;;2.38;1.27;;;;;;;;;;13010885;19;20461;-65
2023/05/15 16:56:48;;;;;;;1.75;1.17;;;;;;;;;;13010857;19;20002;-66
2023/05/15 17:01:06;;;;;;;1.83;1.15;;;;;;;;;;13010294;19;20011;-66
2023/05/15 17:05:24;;;;;;;2.47;1.10;;;;;;;;;;13010771;19;20334;-65
2023/05/15 17:09:43;;;;;;;2.08;1.30;;;;;;;;;;13010947;19;20023;-65
2023/05/15 17:14:01;;;;;;;5.68;1.25;;;;;;;;;;13010297;19;20006;-65
2023/05/15 17:18:18;;;;;;;1.70;1.08;;;;;;;;;;13009304;19;20037;-65
2023/05/15 17:22:36;;;;;;;2.20;1.20;;;;;;;;;;13009360;19;19998;-65
2023/05/15 17:26:54;;;;;;;1.67;0.98;;;;;;;;;;13009663;19;20350;-65
2023/05/15 17:31:12;;;;;;;11.38;2.80;;;;;;;;;;13008457;19;20521;-65
2023/05/15 17:35:29;;;;;;;5.18;2.03;;;;;;;;;;13007306;19;20089;-65
2023/05/15 17:39:50;;;;;;;2.60;1.45;;;;;;;;;;13008610;19;20326;-65
2023/05/15 17:44:07;;;;;;;;;;;;;;;;;;13007916;19;20007;-65
2023/05/15 17:48:26;;;;;;;6.20;2.60;;;;;;;;;;13008449;19;19939;-65
2023/05/15 17:52:43;;;;;;;;;;;;;;;;;;13008581;19;20010;-65
2023/05/15 17:57:01;;;;;;;1.88;1.30;;;;;;;;;;13007161;19;19915;-65
2023/05/15 18:01:20;;;;;;;1.70;1.25;;;;;;;;;;13007607;19;20311;-65
2023/05/15 18:05:37;;;;;;;4.78;1.77;;;;;;;;;;13007554;19;20015;-65
2023/05/15 18:09:55;;;;;;;3.47;1.58;;;;;;;;;;13006781;19;20473;-65
2023/05/15 18:14:13;;;;;;;3.63;2.40;;;;;;;;;;13005991;19;20013;-65
2023/05/15 18:18:30;;;;;;;6.45;3.10;;;;;;;;;;13006066;19;20374;-65
2023/05/15 18:22:49;;;;;;;10.43;5.68;;;;;;;;;;13006657;19;20480;-65
2023/05/15 18:27:07;;;;;;;5.55;3.20;;;;;;;;;;13005537;19;20469;-65
2023/05/15 18:31:25;;;;;;;3.00;1.80;;;;;;;;;;13005861;19;20018;-64
2023/05/15 18:35:42;;;;;;;;;;;;;;;;;;13006136;19;20002;-64
2023/05/15 18:40:00;;;;;;;2.75;1.45;;;;;;;;;;13005111;19;19914;-64
2023/05/15 18:44:18;;;;;;;3.03;1.40;;;;;;;;;;13003884;19;20474;-64
2023/05/15 18:48:37;;;;;;;2.78;1.30;;;;;;;;;;13002032;19;20003;-64
2023/05/15 18:52:54;;;;;;;2.78;1.48;;;;;;;;;;13004423;19;20011;-64
2023/05/15 18:57:13;;;;;;;2.47;1.25;;;;;;;;;;13003252;19;20354;-64
2023/05/15 19:01:30;;;;;;;5.10;2.67;;;;;;;;;;13003803;19;20347;-64
2023/05/15 19:05:48;;;;;;;1.58;0.90;;;;;;;;;;13003523;19;20417;-64
2023/05/15 19:10:07;;;;;;;2.20;1.40;;;;;;;;;;13002832;19;20014;-63
2023/05/15 19:14:25;;;;;;;4.40;2.22;;;;;;;;;;13003524;19;20333;-63
2023/05/15 19:18:43;;;;;;;;;;;;;;;;;;13003435;19;20011;-65
2023/05/15 19:23:01;;;;;;;10.63;4.68;;;;;;;;;;13003531;19;19914;-65
2023/05/15 19:27:20;;;;;;;11.10;3.92;;;;;;;;;;13002820;19;20478;-65
2023/05/15 19:31:38;;;;;;;3.67;1.85;;;;;;;;;;13002022;19;20002;-64
2023/05/15 19:35:56;;;;;;;3.63;1.52;;;;;;;;;;13001956;19;19998;-65
2023/05/15 19:40:14;;;;;;;3.13;1.40;;;;;;;;;;13000178;19;20007;-64
2023/05/15 19:44:32;;;;;;;4.15;2.17;;;;;;;;;;13001198;19;20063;-64
2023/05/15 19:48:52;;;;;;;3.33;1.45;;;;;;;;;;13001638;19;20464;-64
2023/05/15 19:53:10;;;;;;;3.50;1.75;;;;;;;;;;12999155;19;20009;-65
2023/05/15 19:57:28;;;;;;;1.63;1.08;;;;;;;;;;13002387;19;20446;-64
2023/05/15 20:01:46;;;;;;;3.17;1.23;;;;;;;;;;13013929;19;20002;-65
2023/05/15 20:06:04;;;;;;;2.95;1.33;;;;;;;;;;13012769;19;20012;-65
2023/05/15 20:10:22;;;;;;;2.22;1.20;;;;;;;;;;13014022;19;20030;-64
2023/05/15 20:14:40;;;;;;;3.55;1.58;;;;;;;;;;13013682;19;20006;-64
2023/05/15 20:19:01;;;;;;;2.00;1.10;;;;;;;;;;13012541;19;20003;-64
2023/05/15 20:23:20;;;;;;;3.90;1.63;;;;;;;;;;13012775;19;20010;-64
2023/05/15 20:27:37;;;;;;;4.90;1.88;;;;;;;;;;13012723;19;20010;-64
2023/05/15 20:31:55;;;;;;;6.95;3.03;;;;;;;;;;13012151;19;20010;-65
2023/05/15 20:36:15;;;;;;;4.07;2.30;;;;;;;;;;13011903;19;20007;-63
2023/05/15 20:40:33;;;;;;;5.47;2.15;;;;;;;;;;13011105;19;19998;-64
2023/05/15 20:44:51;;;;;;;10.23;5.15;;;;;;;;;;13010705;19;20010;-64
2023/05/15 20:49:08;;;;;;;3.63;2.67;;;;;;;;;;13010642;19;20006;-65
2023/05/15 20:53:27;;;;;;;4.55;2.40;;;;;;;;;;13011835;19;20782;-65
2023/05/15 20:57:47;;;;;;;4.35;2.00;;;;;;;;;;13010115;19;20022;-65
2023/05/15 21:02:04;;;;;;;6.20;3.20;;;;;;;;;;13011052;19;20003;-65
2023/05/15 21:06:22;;;;;;;5.28;1.88;;;;;;;;;;13010624;19;20078;-65
2023/05/15 21:10:40;;;;;;;;;;;;;;;;;;13008531;19;20007;-64
2023/05/15 21:14:58;;;;;;;3.22;1.80;;;;;;;;;;13010539;19;19907;-65
2023/05/15 21:19:16;;;;;;;6.18;3.08;;;;;;;;;;13008897;19;20331;-65
2023/05/15 21:23:35;;;;;;;3.42;1.83;;;;;;;;;;13009335;19;20030;-65
2023/05/15 21:27:53;;;;;;;6.07;1.77;;;;;;;;;;13009335;19;20019;-65
2023/05/15 21:32:11;;;;;;;2.72;1.60;;;;;;;;;;13008206;19;20021;-65
2023/05/15 21:36:28;;;;;;;4.50;1.85;;;;;;;;;;13008621;19;20350;-65
2023/05/15 21:40:46;;;;;;;3.65;2.10;;;;;;;;;;13008438;19;20025;-64
2023/05/15 21:45:04;;;;;;;2.95;2.28;;;;;;;;;;13007737;19;20013;-64
2023/05/15 21:49:23;;;;;;;3.45;2.10;;;;;;;;;;13007716;19;20369;-64
2023/05/15 21:53:41;;;;;;;3.83;2.25;;;;;;;;;;13008187;19;20031;-63
2023/05/15 21:57:58;;;;;;;4.28;2.25;;;;;;;;;;13007331;19;20354;-64
2023/05/15 22:02:16;;;;;;;3.38;2.00;;;;;;;;;;13007316;19;20014;-64
2023/05/15 22:06:34;;;;;;;4.40;2.03;;;;;;;;;;13007745;19;20398;-64
2023/05/15 22:10:52;;;;;;;4.63;2.42;;;;;;;;;;13006871;19;20344;-64
2023/05/15 22:15:11;;;;;;;5.60;2.35;;;;;;;;;;13005273;19;20007;-64
2023/05/15 22:19:29;;;;;;;3.20;2.08;;;;;;;;;;13006277;19;20003;-64
2023/05/15 22:23:50;;;;;;;3.92;2.60;;;;;;;;;;13005839;19;20017;-64
2023/05/15 22:28:07;;;;;;;4.88;3.05;;;;;;;;;;13005290;19;20003;-64
2023/05/15 22:32:25;;;;;;;3.90;2.42;;;;;;;;;;13005265;19;20014;-64
2023/05/15 22:36:46;;;;;;;3.85;2.30;;;;;;;;;;13006154;19;20021;-65
2023/05/15 22:41:05;;;;;;;5.55;2.72;;;;;;;;;;13004336;19;20003;-65
2023/05/15 22:45:23;;;;;;;6.03;2.88;;;;;;;;;;13004489;19;20053;-65
2023/05/15 22:49:41;;;;;;;3.72;2.00;;;;;;;;;;13004456;19;20007;-65
2023/05/15 22:54:01;;;;;;;3.15;2.00;;;;;;;;;;13004694;19;20374;-64
2023/05/15 22:58:19;;;;;;;4.43;2.20;;;;;;;;;;13003366;19;20030;-64
2023/05/15 23:02:37;;;;;;;8.20;2.75;;;;;;;;;;13005030;19;20018;-64
2023/05/15 23:06:55;;;;;;;3.47;2.50;;;;;;;;;;13003993;19;20048;-64
2023/05/15 23:11:12;;;;;;;3.10;1.95;;;;;;;;;;13003686;19;20009;-64
2023/05/15 23:15:30;;;;;;;4.28;2.28;;;;;;;;;;13004448;19;20022;-65
2023/05/15 23:19:48;;;;;;;3.92;2.45;;;;;;;;;;13002817;19;20002;-64
2023/05/15 23:24:05;;;;;;;5.53;2.58;;;;;;;;;;13002373;19;20094;-64
2023/05/15 23:28:23;;;;;;;4.68;3.10;;;;;;;;;;13003073;19;20022;-64
2023/05/15 23:32:41;;;;;;;5.80;3.53;;;;;;;;;;13000985;19;20013;-64
2023/05/15 23:36:58;;;;;;;6.13;3.80;;;;;;;;;;13003138;19;20010;-64
2023/05/15 23:41:16;;;;;;;4.72;3.28;;;;;;;;;;13001226;19;20017;-64
2023/05/15 23:45:34;;;;;;;3.92;2.78;;;;;;;;;;13001391;19;20010;-64
2023/05/15 23:49:51;;;;;;;4.80;2.92;;;;;;;;;;13002030;19;20011;-64
2023/05/15 23:54:10;;;;;;;5.43;3.03;;;;;;;;;;13001110;19;20010;-64
2023/05/15 23:58:28;;;;;;;4.43;2.80;;;;;;;;;;13000811;19;20003;-64
